Time;durP1;ratioP1;P1;durP2;ratioP2;P2;SDS_P1;SDS_P2;PMS_P1;PMS_P2;Temp;Humidity;BMP_temperature;BMP_pressure;BME280_temperature;BME280_humidity;BME280_pressure;Samples;Min_cycle;Max_cycle;Signal;HPM_P1;HPM_P2
2022/03/20 00:00:37;;;;;;;31.83;21.27;;;4.20;25.30;;;;;;5034932;28;21062;-81
2022/03/20 00:03:06;;;;;;;28.50;21.70;;;4.30;26.30;;;;;;5034694;28;20456;-81
2022/03/20 00:05:38;;;;;;;29.50;21.10;;;4.10;26.10;;;;;;5034692;28;20456;-82
2022/03/20 00:08:19;;;;;;;29.30;20.97;;;4.20;26.80;;;;;;5036247;28;20448;-82
2022/03/20 00:10:48;;;;;;;31.33;21.20;;;4.20;26.20;;;;;;5036396;28;21005;-81
2022/03/20 00:13:17;;;;;;;28.93;21.77;;;4.10;25.40;;;;;;5035493;28;20518;-82
2022/03/20 00:15:46;;;;;;;30.50;22.27;;;4.20;24.60;;;;;;5034057;28;20535;-82
2022/03/20 00:18:14;;;;;;;26.50;21.37;;;4.40;24.70;;;;;;5035032;28;20534;-82
2022/03/20 00:20:46;;;;;;;35.30;25.03;;;4.40;24.00;;;;;;5033224;28;20468;-81
2022/03/20 00:23:13;;;;;;;29.10;20.13;;;4.40;24.00;;;;;;5034030;28;20870;-81
2022/03/20 00:25:42;;;;;;;29.07;21.77;;;4.50;23.50;;;;;;5034302;28;20459;-82
2022/03/20 00:28:10;;;;;;;33.10;19.63;;;4.60;22.10;;;;;;5034889;28;20456;-81
2022/03/20 00:30:38;;;;;;;33.80;20.30;;;4.80;21.30;;;;;;5033904;28;20472;-81
2022/03/20 00:33:05;;;;;;;34.33;22.20;;;4.60;21.70;;;;;;5033259;28;20456;-81
2022/03/20 00:35:32;;;;;;;31.13;21.10;;;4.60;21.90;;;;;;5032516;28;20455;-82
2022/03/20 00:38:01;;;;;;;27.53;20.77;;;4.60;21.70;;;;;;5032275;28;20460;-81
2022/03/20 00:40:28;;;;;;;29.23;21.37;;;4.50;22.60;;;;;;5057465;22;20488;-83
2022/03/20 00:42:54;;;;;;;25.97;19.67;;;4.30;23.20;;;;;;5037082;28;20452;-83
2022/03/20 00:45:21;;;;;;;34.77;22.20;;;4.20;23.90;;;;;;5037387;28;20452;-83
2022/03/20 00:47:49;;;;;;;37.97;26.00;;;4.00;24.40;;;;;;5036970;28;20444;-83
2022/03/20 00:50:16;;;;;;;33.30;23.10;;;4.10;24.40;;;;;;5033031;28;20528;-82
2022/03/20 00:52:42;;;;;;;28.10;20.77;;;4.00;25.00;;;;;;5017469;28;20453;-83
2022/03/20 00:55:12;;;;;;;29.90;21.53;;;3.90;25.50;;;;;;5019862;28;20481;-83
2022/03/20 00:57:39;;;;;;;33.40;20.70;;;3.80;25.10;;;;;;5036867;28;20448;-83
2022/03/20 01:00:07;;;;;;;33.40;22.97;;;3.90;25.70;;;;;;5025650;28;20527;-83
2022/03/20 01:02:38;;;;;;;28.20;19.73;;;3.90;25.70;;;;;;5016931;28;20449;-84
2022/03/20 01:05:05;;;;;;;27.17;20.83;;;3.90;25.20;;;;;;5026736;28;20479;-83
2022/03/20 01:07:32;;;;;;;32.80;22.33;;;3.80;25.60;;;;;;5038173;28;20461;-83
2022/03/20 01:10:01;;;;;;;30.90;21.50;;;3.70;25.80;;;;;;5031657;28;20477;-83
2022/03/20 01:12:29;;;;;;;31.77;20.57;;;3.70;25.70;;;;;;5020179;28;20504;-83
2022/03/20 01:14:55;;;;;;;26.70;19.90;;;3.60;25.30;;;;;;5023234;28;20461;-83
2022/03/20 01:17:23;;;;;;;26.87;20.40;;;3.60;25.30;;;;;;5028653;28;20491;-83
2022/03/20 01:19:50;;;;;;;29.53;20.57;;;3.50;25.10;;;;;;5020140;28;20523;-83
2022/03/20 01:22:17;;;;;;;26.70;21.53;;;3.50;25.00;;;;;;5020478;28;20453;-83
2022/03/20 01:24:45;;;;;;;28.50;21.23;;;3.40;25.30;;;;;;5024544;28;20475;-83
2022/03/20 01:27:12;;;;;;;32.57;22.70;;;3.50;25.30;;;;;;5039914;28;20460;-83
2022/03/20 01:29:41;;;;;;;37.00;23.50;;;3.40;25.30;;;;;;5036871;28;20506;-83
2022/03/20 01:32:10;;;;;;;27.93;21.67;;;3.60;25.40;;;;;;5020502;28;20466;-83
2022/03/20 01:34:37;;;;;;;32.53;21.90;;;3.50;25.00;;;;;;5022336;28;20461;-83
2022/03/20 01:37:05;;;;;;;28.87;21.37;;;3.60;24.30;;;;;;5039949;28;20452;-83
2022/03/20 01:39:32;;;;;;;29.93;20.73;;;3.90;23.70;;;;;;5022813;28;20553;-83
2022/03/20 01:41:59;;;;;;;34.20;22.03;;;3.70;23.50;;;;;;5020641;28;20969;-83
2022/03/20 01:44:30;;;;;;;35.90;22.60;;;3.80;23.60;;;;;;5034852;28;20459;-83
2022/03/20 01:46:59;;;;;;;30.83;21.13;;;3.70;24.30;;;;;;5040509;28;20452;-83
2022/03/20 01:49:25;;;;;;;30.30;19.70;;;3.80;23.70;;;;;;5025375;28;20473;-83
2022/03/20 01:54:36;;;;;;;27.73;19.63;;;3.90;23.70;;;;;;5036026;28;20468;-83
2022/03/20 01:57:04;;;;;;;34.40;21.63;;;4.00;23.70;;;;;;5040711;28;20981;-83
2022/03/20 01:59:31;;;;;;;33.03;21.00;;;4.10;23.90;;;;;;5025793;28;20450;-83
2022/03/20 02:01:59;;;;;;;30.03;20.80;;;4.10;23.80;;;;;;5020010;28;20457;-83
2022/03/20 02:04:25;;;;;;;33.23;22.20;;;4.20;23.90;;;;;;5032871;28;20452;-83
2022/03/20 02:06:52;;;;;;;28.17;20.77;;;4.30;23.30;;;;;;5039969;28;20488;-83
2022/03/20 02:09:19;;;;;;;30.40;20.07;;;4.30;23.60;;;;;;5028886;28;20880;-82
2022/03/20 02:11:48;;;;;;;31.80;20.30;;;4.40;22.60;;;;;;5020411;28;20460;-83
2022/03/20 02:14:15;;;;;;;27.80;19.17;;;4.40;23.20;;;;;;5029710;28;20453;-83
2022/03/20 02:16:42;;;;;;;31.13;20.10;;;4.30;22.10;;;;;;5040230;28;20444;-83
2022/03/20 02:19:13;;;;;;;29.80;19.80;;;4.40;22.10;;;;;;5021011;28;20445;-83
2022/03/20 02:21:43;;;;;;;31.23;21.23;;;4.30;22.70;;;;;;5020707;28;20473;-83
2022/03/20 02:24:33;;;;;;;25.70;18.17;;;4.20;23.20;;;;;;5019696;28;20445;-83
2022/03/20 02:27:09;;;;;;;29.50;20.83;;;4.00;23.40;;;;;;5036189;28;20453;-83
2022/03/20 02:29:36;;;;;;;26.47;18.60;;;3.90;23.70;;;;;;5038497;28;20486;-83
2022/03/20 02:32:05;;;;;;;32.07;21.50;;;3.80;23.60;;;;;;5022869;28;20457;-83
2022/03/20 02:34:32;;;;;;;35.23;21.30;;;3.70;23.50;;;;;;5019231;28;20840;-83
2022/03/20 02:37:01;;;;;;;32.33;22.93;;;3.50;24.10;;;;;;5034047;28;20453;-83
2022/03/20 02:39:29;;;;;;;27.37;19.30;;;3.50;24.10;;;;;;5027622;28;20873;-83
2022/03/20 02:41:57;;;;;;;31.30;19.60;;;3.60;24.30;;;;;;5035023;28;20463;-83
2022/03/20 02:44:49;;;;;;;29.10;19.13;;;3.50;24.40;;;;;;5037263;28;20455;-83
2022/03/20 02:47:17;;;;;;;28.40;18.30;;;3.70;23.50;;;;;;5034693;28;20461;-83
2022/03/20 02:49:44;;;;;;;29.33;22.07;;;3.70;23.80;;;;;;5018352;28;20485;-83
2022/03/20 02:52:13;;;;;;;32.57;19.80;;;3.80;23.80;;;;;;5020597;28;20467;-83
2022/03/20 02:54:39;;;;;;;31.40;22.17;;;3.80;24.30;;;;;;5038778;28;20457;-83
2022/03/20 02:57:08;;;;;;;34.63;21.20;;;3.80;24.90;;;;;;5036753;28;20459;-83
2022/03/20 02:59:35;;;;;;;27.80;20.33;;;3.90;24.70;;;;;;5018375;28;20449;-83
2022/03/20 03:02:02;;;;;;;29.40;22.20;;;3.80;24.00;;;;;;5018490;28;20884;-83
2022/03/20 03:04:29;;;;;;;29.77;21.50;;;3.90;24.10;;;;;;4998846;28;20457;-83
2022/03/20 03:06:55;;;;;;;32.70;20.73;;;4.00;24.20;;;;;;4999532;28;20830;-83
2022/03/20 03:12:08;;;;;;;30.67;21.00;;;4.00;25.10;;;;;;5019894;28;20460;-83
2022/03/20 03:17:27;;;;;;;27.83;21.07;;;3.80;26.30;;;;;;5035597;28;20435;-83
2022/03/20 03:19:54;;;;;;;32.93;22.10;;;3.90;26.50;;;;;;5017684;28;20465;-83
2022/03/20 03:22:21;;;;;;;30.33;21.50;;;3.80;26.70;;;;;;5018059;28;20464;-83
2022/03/20 03:24:50;;;;;;;33.53;23.10;;;3.70;26.00;;;;;;5018137;28;20457;-83
2022/03/20 03:27:17;;;;;;;31.67;20.37;;;3.70;26.50;;;;;;5018074;28;20453;-83
2022/03/20 03:29:44;;;;;;;27.50;20.57;;;3.70;27.10;;;;;;5017512;28;20868;-83
2022/03/20 03:32:10;;;;;;;37.03;20.00;;;3.50;26.30;;;;;;5017827;28;20876;-83
2022/03/20 03:37:22;;;;;;;33.70;22.80;;;3.30;27.30;;;;;;5017487;28;20524;-83
2022/03/20 03:39:51;;;;;;;30.37;19.70;;;3.40;27.30;;;;;;5018352;28;20485;-83
2022/03/20 03:42:17;;;;;;;31.60;21.70;;;3.50;28.30;;;;;;5018966;28;20456;-83
2022/03/20 03:44:44;;;;;;;26.93;21.17;;;3.40;28.50;;;;;;5019112;28;20453;-83
2022/03/20 03:47:11;;;;;;;34.03;24.03;;;3.30;27.80;;;;;;5017416;28;20445;-83
2022/03/20 03:49:37;;;;;;;31.33;22.37;;;3.40;28.60;;;;;;5019625;28;20461;-81
2022/03/20 03:52:05;;;;;;;36.27;20.50;;;3.30;27.90;;;;;;5028391;28;20450;-83
2022/03/20 03:54:32;;;;;;;33.23;21.40;;;3.30;29.10;;;;;;5017041;28;20488;-83
2022/03/20 03:57:01;;;;;;;36.10;23.37;;;3.20;28.60;;;;;;5016797;28;20460;-85
2022/03/20 03:59:27;;;;;;;29.40;22.17;;;3.20;29.20;;;;;;5003966;28;20456;-83
2022/03/20 04:01:56;;;;;;;36.67;25.57;;;3.00;29.70;;;;;;5012052;28;20453;-83
2022/03/20 04:04:22;;;;;;;28.97;21.00;;;3.00;30.00;;;;;;5012337;28;20461;-83
2022/03/20 04:06:49;;;;;;;30.60;21.83;;;2.90;29.90;;;;;;5017328;28;20472;-83
2022/03/20 04:09:16;;;;;;;30.73;21.37;;;2.70;29.40;;;;;;5019632;28;20472;-83
2022/03/20 04:11:43;;;;;;;33.20;21.33;;;2.80;29.80;;;;;;5015737;28;20485;-83
2022/03/20 04:14:11;;;;;;;29.97;22.87;;;2.70;29.90;;;;;;5021398;28;20448;-83
2022/03/20 04:16:37;;;;;;;34.73;23.50;;;2.60;30.00;;;;;;5037101;28;20453;-83
2022/03/20 04:19:04;;;;;;;32.47;22.07;;;2.40;31.10;;;;;;5018408;28;20445;-83
2022/03/20 04:21:31;;;;;;;41.10;23.63;;;2.30;31.80;;;;;;5016695;28;20477;-83
2022/03/20 04:23:59;;;;;;;37.67;24.77;;;2.00;33.00;;;;;;5032407;28;20452;-83
2022/03/20 04:26:25;;;;;;;35.30;22.97;;;1.70;35.60;;;;;;5037417;28;20992;-83
2022/03/20 04:28:53;;;;;;;36.00;25.03;;;1.60;37.30;;;;;;5033080;28;20456;-83
2022/03/20 04:31:22;;;;;;;42.70;25.90;;;1.40;38.30;;;;;;5029094;28;20464;-83
2022/03/20 04:33:53;;;;;;;56.20;35.80;;;1.30;42.70;;;;;;5024189;28;20472;-82
2022/03/20 04:36:22;;;;;;;37.87;26.67;;;1.10;44.30;;;;;;5035257;28;20449;-83
2022/03/20 04:38:49;;;;;;;31.83;22.50;;;1.00;48.00;;;;;;5036107;28;20452;-82
2022/03/20 04:41:17;;;;;;;39.87;25.93;;;0.80;52.80;;;;;;5038435;28;20472;-83
2022/03/20 04:43:44;;;;;;;39.33;26.73;;;0.80;54.30;;;;;;5024025;28;20544;-83
2022/03/20 04:46:11;;;;;;;38.95;27.42;;;0.60;56.10;;;;;;5041583;28;20194;-83
2022/03/20 04:59:36;;;;;;;36.50;26.17;;;0.10;64.20;;;;;;5022790;28;20428;-82
2022/03/20 05:02:03;;;;;;;40.73;29.17;;;0.00;65.50;;;;;;5017297;28;20446;-83
2022/03/20 05:04:31;;;;;;;37.37;25.90;;;0.10;67.40;;;;;;5015245;28;20453;-83
2022/03/20 05:06:58;;;;;;;42.50;26.53;;;0.10;62.80;;;;;;5022603;28;20445;-83
2022/03/20 05:14:57;;;;;;;38.20;25.53;;;0.50;58.10;;;;;;5027209;28;20677;-83
2022/03/20 05:17:24;;;;;;;34.40;22.87;;;0.80;54.00;;;;;;5019430;28;20463;-83
2022/03/20 05:19:52;;;;;;;37.03;23.23;;;0.80;53.10;;;;;;5020551;28;20480;-83
2022/03/20 05:22:19;;;;;;;34.77;24.03;;;1.10;50.90;;;;;;5023784;28;20460;-83
2022/03/20 05:24:45;;;;;;;38.27;23.90;;;1.10;51.00;;;;;;5027569;28;20452;-84
2022/03/20 05:27:12;;;;;;;34.27;23.67;;;1.20;49.50;;;;;;5035087;28;20476;-83
2022/03/20 05:29:40;;;;;;;36.80;23.87;;;1.30;51.20;;;;;;5034907;28;20487;-83
2022/03/20 05:32:09;;;;;;;34.50;23.27;;;1.30;51.00;;;;;;5033100;28;20459;-83
2022/03/20 05:34:37;;;;;;;34.03;24.60;;;1.50;51.70;;;;;;5027360;28;20445;-83
2022/03/20 05:37:07;;;;;;;34.90;24.70;;;1.50;52.50;;;;;;5022883;28;20480;-83
2022/03/20 05:39:34;;;;;;;34.17;26.10;;;1.60;51.20;;;;;;5030409;28;21025;-84
2022/03/20 05:42:01;;;;;;;38.03;24.73;;;1.70;53.30;;;;;;5043995;28;20453;-84
2022/03/20 05:44:28;;;;;;;32.80;23.43;;;1.80;54.50;;;;;;5042934;28;20448;-83
2022/03/20 05:46:57;;;;;;;37.53;24.20;;;2.50;38.40;;;;;;5039379;28;20445;-83
2022/03/20 05:49:25;;;;;;;38.90;25.63;;;2.50;44.00;;;;;;5047942;28;20518;-83
2022/03/20 05:51:54;;;;;;;41.43;26.40;;;2.50;47.70;;;;;;5034062;28;20455;-83
2022/03/20 05:54:22;;;;;;;38.20;25.13;;;2.40;49.90;;;;;;5044333;28;20452;-83
2022/03/20 05:59:35;;;;;;;45.00;26.10;;;2.50;52.10;;;;;;5030974;28;20460;-83
2022/03/20 06:02:01;;;;;;;37.20;26.63;;;2.50;49.80;;;;;;5033117;28;20457;-83
2022/03/20 06:04:28;;;;;;;39.63;26.03;;;2.50;53.60;;;;;;5023296;28;20460;-83
2022/03/20 06:06:58;;;;;;;37.93;25.30;;;2.60;54.90;;;;;;5024468;28;20448;-83
2022/03/20 06:09:26;;;;;;;39.43;25.23;;;2.60;54.00;;;;;;5038957;28;20456;-84
2022/03/20 06:11:53;;;;;;;37.43;26.67;;;2.60;55.60;;;;;;5035530;28;20449;-83
2022/03/20 06:14:19;;;;;;;33.00;25.10;;;2.60;56.40;;;;;;5029721;28;20452;-83
2022/03/20 06:16:48;;;;;;;36.03;28.77;;;2.70;54.40;;;;;;5028076;28;20456;-83
2022/03/20 06:19:15;;;;;;;42.00;26.80;;;2.80;54.70;;;;;;5033869;28;20456;-83
2022/03/20 06:21:42;;;;;;;34.30;25.97;;;2.90;54.70;;;;;;5030989;28;20469;-82
2022/03/20 06:24:09;;;;;;;37.83;24.97;;;3.00;56.80;;;;;;5031227;28;20457;-83
2022/03/20 06:26:37;;;;;;;37.83;23.70;;;3.30;45.10;;;;;;5021643;28;20521;-83
2022/03/20 06:29:06;;;;;;;32.73;23.07;;;3.70;42.80;;;;;;5034145;28;20456;-83
2022/03/20 06:31:33;;;;;;;33.90;22.70;;;3.80;37.90;;;;;;5028868;28;20491;-83
2022/03/20 06:34:01;;;;;;;39.80;25.13;;;4.10;35.70;;;;;;5029679;28;20453;-83
2022/03/20 06:36:29;;;;;;;36.87;24.80;;;4.20;33.20;;;;;;5019340;28;20461;-83
2022/03/20 06:38:56;;;;;;;33.70;22.40;;;4.30;32.30;;;;;;5018010;28;20481;-83
2022/03/20 06:41:23;;;;;;;36.37;23.77;;;4.30;31.90;;;;;;5068397;22;20487;-81
2022/03/20 06:43:51;;;;;;;35.80;24.80;;;4.20;32.00;;;;;;5055000;28;20828;-81
2022/03/20 06:46:18;;;;;;;37.33;25.30;;;4.40;32.70;;;;;;5054859;28;20455;-80
2022/03/20 06:48:45;;;;;;;32.30;23.87;;;4.60;32.70;;;;;;5051282;28;20452;-80
2022/03/20 06:51:11;;;;;;;34.93;24.07;;;4.70;30.40;;;;;;5063662;28;20483;-80
2022/03/20 06:53:39;;;;;;;33.90;22.80;;;4.90;26.40;;;;;;5069060;28;20447;-81
2022/03/20 06:56:05;;;;;;;38.80;25.50;;;5.20;25.80;;;;;;5074143;28;20454;-81
2022/03/20 06:58:32;;;;;;;36.50;24.43;;;5.40;24.70;;;;;;5074365;28;20462;-82
2022/03/20 07:01:00;;;;;;;35.00;24.40;;;5.70;22.60;;;;;;5071967;28;21001;-82
2022/03/20 07:03:27;;;;;;;40.47;26.83;;;6.00;19.30;;;;;;5067549;28;20450;-82
2022/03/20 07:05:53;;;;;;;36.40;25.17;;;6.40;18.10;;;;;;5073534;28;20462;-81
2022/03/20 07:08:21;;;;;;;38.63;25.83;;;6.60;17.10;;;;;;5074236;28;20821;-81
2022/03/20 07:10:48;;;;;;;40.40;26.77;;;6.70;17.60;;;;;;5074077;28;20489;-82
2022/03/20 07:16:00;;;;;;;34.83;26.17;;;6.80;17.10;;;;;;5072535;28;20438;-82
2022/03/20 07:18:27;;;;;;;35.30;25.87;;;7.00;16.10;;;;;;5072990;28;20830;-82
2022/03/20 07:20:55;;;;;;;37.13;26.27;;;7.00;16.20;;;;;;5074154;28;20463;-82
2022/03/20 07:23:22;;;;;;;33.17;23.97;;;7.20;15.00;;;;;;5074130;28;20500;-82
2022/03/20 07:31:19;;;;;;;38.40;26.40;;;7.40;13.90;;;;;;5073246;28;20481;-82
2022/03/20 07:33:48;;;;;;;36.87;26.57;;;7.20;12.80;;;;;;5073518;28;20826;-81
2022/03/20 07:36:15;;;;;;;34.10;25.30;;;7.20;13.20;;;;;;5072969;28;20522;-82
2022/03/20 07:38:42;;;;;;;32.97;24.17;;;6.90;13.30;;;;;;5072705;28;20455;-82
2022/03/20 07:41:09;;;;;;;35.53;25.63;;;6.80;13.40;;;;;;5073734;28;20476;-82
2022/03/20 07:43:36;;;;;;;36.63;24.60;;;6.80;14.70;;;;;;5072899;28;20450;-82
2022/03/20 07:46:02;;;;;;;38.03;25.27;;;6.90;15.40;;;;;;5073395;28;20469;-83
2022/03/20 07:48:31;;;;;;;36.73;26.43;;;6.90;14.70;;;;;;5072605;28;20454;-82
2022/03/20 07:50:59;;;;;;;39.50;25.13;;;6.90;13.90;;;;;;5071404;28;20481;-82
2022/03/20 07:53:26;;;;;;;39.50;27.47;;;7.00;15.80;;;;;;5073504;28;20457;-82
2022/03/20 07:55:54;;;;;;;35.83;27.17;;;7.20;15.00;;;;;;5074259;28;20500;-83
2022/03/20 07:58:21;;;;;;;40.53;26.70;;;7.20;13.70;;;;;;5072878;28;20450;-82
2022/03/20 08:00:48;;;;;;;35.43;27.53;;;7.30;13.80;;;;;;5074070;28;20501;-82
2022/03/20 08:03:15;;;;;;;42.10;27.87;;;7.30;13.00;;;;;;5073125;28;20458;-81
2022/03/20 08:05:44;;;;;;;36.67;26.13;;;7.40;13.90;;;;;;5076175;28;20457;-86
2022/03/20 08:08:14;;;;;;;42.90;26.47;;;7.70;15.50;;;;;;5075494;28;20450;-83
2022/03/20 08:10:41;;;;;;;32.60;25.93;;;7.80;11.80;;;;;;5074499;28;20482;-83
2022/03/20 08:13:09;;;;;;;42.53;28.20;;;7.80;11.80;;;;;;5073735;28;20447;-84
2022/03/20 08:15:36;;;;;;;43.53;28.10;;;8.00;13.10;;;;;;5073209;28;20245;-84
2022/03/20 08:18:06;;;;;;;33.23;24.07;;;8.00;13.10;;;;;;5074643;28;20846;-84
2022/03/20 08:20:32;;;;;;;39.10;27.13;;;8.20;12.80;;;;;;5073110;28;20498;-84
2022/03/20 08:23:01;;;;;;;33.23;25.00;;;8.10;12.00;;;;;;5072457;28;20450;-83
2022/03/20 08:25:27;;;;;;;43.80;28.27;;;8.10;11.40;;;;;;5071766;28;20458;-84
2022/03/20 08:27:54;;;;;;;30.17;23.20;;;8.30;11.10;;;;;;5072938;28;20461;-82
2022/03/20 08:30:22;;;;;;;36.00;27.00;;;8.30;10.30;;;;;;5072139;28;20481;-83
2022/03/20 08:32:49;;;;;;;40.27;28.73;;;8.60;12.30;;;;;;5071834;28;20450;-84
2022/03/20 08:35:17;;;;;;;33.97;25.87;;;8.50;11.70;;;;;;5072213;28;20450;-83
2022/03/20 08:37:45;;;;;;;38.40;27.47;;;8.70;11.20;;;;;;5071253;28;20447;-83
2022/03/20 08:40:16;;;;;;;38.40;28.20;;;8.90;10.50;;;;;;5051742;28;20487;-83
2022/03/20 08:42:45;;;;;;;36.90;25.37;;;9.20;11.40;;;;;;5068478;28;20453;-84
2022/03/20 08:45:12;;;;;;;36.03;26.50;;;9.50;7.30;;;;;;5072805;28;20504;-84
2022/03/20 08:47:39;;;;;;;38.10;26.17;;;9.90;5.80;;;;;;5072918;28;20455;-84
2022/03/20 08:50:07;;;;;;;39.23;27.40;;;10.20;5.20;;;;;;5073912;28;20470;-84
2022/03/20 08:52:35;;;;;;;39.70;29.47;;;10.40;4.30;;;;;;5071518;28;20667;-83
2022/03/20 08:55:09;;;;;;;35.20;26.67;;;10.40;5.30;;;;;;5072368;28;20818;-85
2022/03/20 08:57:38;;;;;;;36.83;27.70;;;10.50;4.20;;;;;;5070520;28;20454;-84
2022/03/20 09:00:07;;;;;;;43.23;29.37;;;10.20;5.20;;;;;;5072042;28;20978;-83
2022/03/20 09:02:33;;;;;;;39.53;26.87;;;10.10;5.10;;;;;;5072125;28;20833;-83
2022/03/20 09:05:00;;;;;;;43.40;28.13;;;10.20;5.20;;;;;;5072182;28;20457;-82
2022/03/20 09:07:27;;;;;;;37.50;28.17;;;9.90;5.70;;;;;;5072150;28;20461;-84
2022/03/20 09:09:54;;;;;;;34.40;27.40;;;10.10;5.10;;;;;;5071099;28;20457;-84
2022/03/20 09:12:20;;;;;;;38.33;28.50;;;10.10;5.80;;;;;;5071178;28;20851;-83
2022/03/20 09:14:48;;;;;;;34.30;26.60;;;10.00;5.00;;;;;;5071122;28;20450;-82
2022/03/20 09:20:00;;;;;;;37.20;28.30;;;10.00;5.30;;;;;;5058377;28;20551;-83
2022/03/20 09:22:27;;;;;;;39.30;28.90;;;9.90;6.50;;;;;;5072227;28;20969;-82
2022/03/20 09:24:53;;;;;;;38.60;27.00;;;9.90;8.80;;;;;;5072391;28;20521;-84
2022/03/20 09:27:22;;;;;;;38.97;29.03;;;10.00;6.80;;;;;;5073418;28;20462;-83
2022/03/20 09:29:50;;;;;;;34.30;27.17;;;10.10;6.30;;;;;;5076137;28;20550;-83
2022/03/20 09:32:17;;;;;;;42.00;28.40;;;10.10;5.10;;;;;;5074970;28;20974;-86
2022/03/20 09:34:44;;;;;;;43.13;29.17;;;10.10;5.90;;;;;;5076862;28;20504;-83
2022/03/20 09:37:11;;;;;;;39.70;27.80;;;10.10;6.20;;;;;;5074860;28;20454;-83
2022/03/20 09:39:38;;;;;;;37.53;28.47;;;10.00;5.00;;;;;;5075960;28;20458;-84
2022/03/20 09:42:06;;;;;;;39.97;28.20;;;10.10;5.10;;;;;;5074569;28;20482;-84
2022/03/20 09:44:37;;;;;;;33.87;27.90;;;10.20;5.20;;;;;;5074640;28;20454;-84
2022/03/20 09:47:09;;;;;;;41.67;27.90;;;10.10;5.10;;;;;;5074952;28;20512;-84
2022/03/20 09:49:37;;;;;;;38.43;29.00;;;10.20;5.80;;;;;;5074978;28;20457;-84
2022/03/20 09:52:06;;;;;;;42.17;28.93;;;10.50;6.60;;;;;;5075198;28;20481;-83
2022/03/20 09:55:21;;;;;;;;;;;;;;;;;;;;;
2022/03/20 09:58:16;;;;;;;40.70;29.67;;;10.40;6.70;;;;;;5075760;28;20441;-83
2022/03/20 10:00:52;;;;;;;39.30;27.87;;;10.80;7.10;;;;;;5073797;28;20471;-84
2022/03/20 10:03:21;;;;;;;37.93;27.47;;;11.50;6.10;;;;;;5068804;28;20450;-84
2022/03/20 10:06:06;;;;;;;39.10;29.00;;;12.20;4.00;;;;;;5067771;28;20499;-83
2022/03/20 10:08:33;;;;;;;36.07;27.13;;;12.40;1.40;;;;;;5074954;28;20454;-82
2022/03/20 10:11:13;;;;;;;39.83;30.10;;;12.60;1.00;;;;;;5075596;28;20474;-84
2022/03/20 10:13:40;;;;;;;36.77;28.40;;;12.60;1.00;;;;;;5076567;28;20454;-83
2022/03/20 10:16:18;;;;;;;38.20;29.70;;;13.00;1.00;;;;;;5075357;28;20443;-83
2022/03/20 10:18:46;;;;;;;34.90;29.00;;;13.10;1.00;;;;;;5074932;28;20454;-83
2022/03/20 10:21:12;;;;;;;36.53;29.73;;;13.20;1.00;;;;;;5074843;28;20474;-83
2022/03/20 10:23:41;;;;;;;35.50;28.33;;;13.20;1.00;;;;;;5075847;28;20529;-83
2022/03/20 10:26:10;;;;;;;35.87;29.57;;;13.10;1.00;;;;;;5074035;28;20504;-84
2022/03/20 10:28:38;;;;;;;42.10;30.33;;;12.90;1.00;;;;;;5074706;28;20823;-84
2022/03/20 10:31:07;;;;;;;40.70;31.37;;;12.70;1.00;;;;;;5074958;28;20474;-83
2022/03/20 10:33:38;;;;;;;36.47;28.37;;;12.70;1.80;;;;;;5074420;28;20458;-84
2022/03/20 10:36:14;;;;;;;38.23;29.13;;;12.70;1.00;;;;;;5074252;28;20837;-85
2022/03/20 10:38:43;;;;;;;36.33;29.23;;;12.50;1.40;;;;;;5067038;28;20453;-84
2022/03/20 10:41:21;;;;;;;35.60;29.20;;;12.30;1.50;;;;;;5072753;28;20482;-84
2022/03/20 10:43:48;;;;;;;34.60;28.33;;;12.70;1.40;;;;;;5054904;28;20458;-83
2022/03/20 10:46:22;;;;;;;36.07;28.67;;;12.90;1.00;;;;;;5061761;28;20450;-84
2022/03/20 10:48:52;;;;;;;36.37;27.30;;;13.60;1.00;;;;;;5073484;28;20450;-84
2022/03/20 10:51:37;;;;;;;38.63;30.07;;;13.40;1.00;;;;;;5073444;28;20471;-83
2022/03/20 10:54:05;;;;;;;41.00;30.60;;;13.20;1.00;;;;;;5074472;28;20549;-83
2022/03/20 10:56:32;;;;;;;38.73;30.70;;;13.60;1.00;;;;;;5073091;28;20447;-83
2022/03/20 10:59:00;;;;;;;38.03;30.33;;;13.90;1.00;;;;;;5072039;28;20452;-84
2022/03/20 11:01:37;;;;;;;40.40;32.10;;;14.20;1.00;;;;;;5073118;28;20475;-83
2022/03/20 11:04:05;;;;;;;40.90;30.37;;;14.50;1.00;;;;;;5069717;28;20453;-84
2022/03/20 11:06:33;;;;;;;40.00;30.37;;;14.30;1.00;;;;;;5071998;28;20453;-84
2022/03/20 11:09:02;;;;;;;41.80;32.47;;;13.90;1.00;;;;;;5070976;28;20451;-85
2022/03/20 11:11:30;;;;;;;40.13;30.60;;;13.50;1.00;;;;;;5073044;28;20524;-84
2022/03/20 11:13:59;;;;;;;40.77;31.63;;;13.50;1.00;;;;;;5072175;28;20460;-84
2022/03/20 11:16:28;;;;;;;37.27;30.70;;;13.20;1.00;;;;;;5071096;28;20459;-86
2022/03/20 11:18:59;;;;;;;49.73;37.73;;;13.00;1.00;;;;;;5072214;28;20446;-84
2022/03/20 11:21:28;;;;;;;40.53;30.93;;;12.80;1.00;;;;;;5072481;28;20540;-84
2022/03/20 11:23:58;;;;;;;37.30;28.23;;;12.80;2.90;;;;;;5072427;28;20450;-83
2022/03/20 11:26:26;;;;;;;40.40;31.00;;;12.70;1.00;;;;;;5071458;28;20446;-84
2022/03/20 11:28:58;;;;;;;42.90;31.40;;;13.00;1.90;;;;;;5072222;28;20450;-83
2022/03/20 11:31:57;;;;;;;42.77;28.27;;;13.00;1.50;;;;;;5073294;28;21009;-84
2022/03/20 11:34:41;;;;;;;59.80;40.33;;;12.70;5.00;;;;;;5078005;28;20476;-85
2022/03/20 11:37:09;;;;;;;40.77;28.57;;;12.60;3.20;;;;;;5074344;28;20449;-83
2022/03/20 11:39:38;;;;;;;44.57;32.30;;;12.60;4.80;;;;;;5072087;28;20955;-83
2022/03/20 11:42:22;;;;;;;46.90;35.10;;;12.40;5.70;;;;;;5073147;28;20478;-83
2022/03/20 11:44:53;;;;;;;41.70;31.73;;;12.20;4.00;;;;;;5072960;28;20804;-84
2022/03/20 11:47:22;;;;;;;40.83;30.77;;;11.90;7.60;;;;;;5071475;28;20462;-83
2022/03/20 11:50:10;;;;;;;46.00;33.00;;;11.70;8.70;;;;;;5072040;28;20446;-83
2022/03/20 11:52:45;;;;;;;49.20;31.20;;;11.40;9.80;;;;;;5072181;28;20439;-83
2022/03/20 11:55:29;;;;;;;39.03;29.57;;;11.10;13.30;;;;;;5071923;28;20556;-83
2022/03/20 11:57:56;;;;;;;40.90;31.17;;;10.70;13.00;;;;;;5064601;28;20958;-82
2022/03/20 12:00:27;;;;;;;46.37;33.47;;;10.50;16.20;;;;;;5072181;28;20469;-81
2022/03/20 12:03:21;;;;;;;43.30;32.83;;;10.40;20.00;;;;;;5071526;28;20470;-82
2022/03/20 12:06:06;;;;;;;43.37;30.20;;;10.20;22.20;;;;;;5062580;28;20974;-81
2022/03/20 12:08:59;;;;;;;45.90;32.10;;;9.80;27.60;;;;;;5071003;28;20458;-81
2022/03/20 12:11:34;;;;;;;44.97;32.50;;;9.60;33.00;;;;;;5071252;28;20519;-82
2022/03/20 12:14:15;;;;;;;45.05;29.70;;;9.40;40.40;;;;;;5073952;28;20511;-82
2022/03/20 12:16:55;;;;;;;52.50;34.03;;;9.00;46.10;;;;;;5062099;28;20195;-82
2022/03/20 12:19:24;;;;;;;56.27;36.17;;;8.70;56.50;;;;;;5071395;28;20454;-80
2022/03/20 12:21:55;;;;;;;45.90;33.23;;;8.50;61.60;;;;;;5072367;28;20478;-81
2022/03/20 12:24:49;;;;;;;29.77;20.67;;;8.50;62.20;;;;;;5074170;28;20830;-80
2022/03/20 12:27:45;;;;;;;46.53;29.80;;;8.70;51.00;;;;;;5065723;28;20447;-81
2022/03/20 12:30:31;;;;;;;38.13;25.87;;;8.80;59.10;;;;;;5034145;28;20884;-80
2022/03/20 12:32:59;;;;;;;48.40;26.93;;;8.50;60.60;;;;;;5070724;28;20450;-81
2022/03/20 12:35:28;;;;;;;53.07;35.90;;;8.40;63.40;;;;;;5073639;28;20899;-81
2022/03/20 12:37:56;;;;;;;59.60;45.70;;;8.20;71.30;;;;;;5072170;28;20480;-81
2022/03/20 12:40:25;;;;;;;51.20;37.47;;;8.10;82.20;;;;;;5071456;28;20229;-81
2022/03/20 12:42:59;;;;;;;62.63;43.20;;;8.10;82.00;;;;;;5074667;28;20501;-83
2022/03/20 12:45:27;;;;;;;59.27;45.30;;;7.90;90.50;;;;;;5073256;28;20450;-81
2022/03/20 12:47:57;;;;;;;58.33;47.23;;;8.00;99.90;;;;;;5053941;28;20459;-80
2022/03/20 12:50:25;;;;;;;74.83;67.33;;;7.80;99.90;;;;;;5072353;28;20477;-81
2022/03/20 12:52:55;;;;;;;60.83;54.50;;;7.80;99.90;;;;;;5071221;28;20453;-80
2022/03/20 12:55:26;;;;;;;234.60;222.60;;;7.70;99.90;;;;;;5075086;22;20481;-79
2022/03/20 12:57:53;;;;;;;67.70;60.63;;;7.60;99.90;;;;;;5039883;28;20447;-82
2022/03/20 13:00:23;;;;;;;51.20;45.77;;;7.60;99.90;;;;;;5031805;28;20440;-81
2022/03/20 13:02:58;;;;;;;123.07;114.37;;;7.40;99.90;;;;;;5036764;28;20476;-82
2022/03/20 13:05:25;;;;;;;344.93;329.30;;;7.30;99.90;;;;;;5043070;28;20471;-82
2022/03/20 13:07:53;;;;;;;369.40;353.43;;;7.40;99.90;;;;;;5044775;28;20451;-82
2022/03/20 13:10:20;;;;;;;518.77;494.20;;;7.20;99.90;;;;;;5057574;28;20451;-81
2022/03/20 13:12:51;;;;;;;534.33;505.70;;;7.20;99.90;;;;;;5041469;28;20468;-81
2022/03/20 13:15:24;;;;;;;618.80;584.43;;;7.10;99.90;;;;;;5037410;28;20475;-80
2022/03/20 13:17:50;;;;;;;579.10;547.30;;;7.10;99.90;;;;;;5037057;28;20482;-82
2022/03/20 13:20:19;;;;;;;546.83;519.33;;;7.10;99.90;;;;;;5032764;28;20460;-80
2022/03/20 13:22:46;;;;;;;468.73;446.83;;;7.10;99.90;;;;;;5036069;28;20555;-81
2022/03/20 13:25:18;;;;;;;467.33;445.93;;;7.10;99.90;;;;;;5054521;28;20475;-82
2022/03/20 13:27:47;;;;;;;442.27;422.10;;;7.00;99.90;;;;;;5036883;28;20452;-83
2022/03/20 13:30:15;;;;;;;496.30;472.63;;;7.00;99.90;;;;;;5040648;28;20447;-82